sensor_id;sensor_type;location;lat;lon;timestamp;pressure;altitude;pressure_sealevel;temperature;humidity
36600;BME280;35385;55.668;37.508;2023-09-18T00:00:12;99860.44;;;11.79;100.00
36600;BME280;35385;55.668;37.508;2023-09-18T00:01:13;99875.97;;;11.85;100.00
36600;BME280;35385;55.668;37.508;2023-09-18T00:02:14;99865.97;;;11.87;100.00
36600;BME280;35385;55.668;37.508;2023-09-18T00:03:16;99848.88;;;11.78;100.00
36600;BME280;35385;55.668;37.508;2023-09-18T00:04:18;99871.31;;;11.87;100.00
36600;BME280;35385;55.668;37.508;2023-09-18T00:05:18;99824.97;;;11.65;100.00
36600;BME280;35385;55.668;37.508;2023-09-18T00:06:19;99872.66;;;11.92;100.00
36600;BME280;35385;55.668;37.508;2023-09-18T00:07:19;99867.28;;;11.92;100.00
36600;BME280;35385;55.668;37.508;2023-09-18T00:08:20;99873.50;;;11.93;100.00
36600;BME280;35385;55.668;37.508;2023-09-18T00:09:22;99873.50;;;11.93;100.00
36600;BME280;35385;55.668;37.508;2023-09-18T00:10:23;99860.63;;;11.87;100.00
36600;BME280;35385;55.668;37.508;2023-09-18T00:11:23;99877.47;;;11.98;100.00
36600;BME280;35385;55.668;37.508;2023-09-18T00:12:24;99879.44;;;11.96;100.00
36600;BME280;35385;55.668;37.508;2023-09-18T00:13:24;99871.66;;;11.93;100.00
36600;BME280;35385;55.668;37.508;2023-09-18T00:14:25;99872.97;;;11.99;100.00
36600;BME280;35385;55.668;37.508;2023-09-18T00:15:27;99841.81;;;11.77;100.00
36600;BME280;35385;55.668;37.508;2023-09-18T00:16:27;99875.91;;;11.96;100.00
36600;BME280;35385;55.668;37.508;2023-09-18T00:17:28;99820.59;;;11.64;100.00
36600;BME280;35385;55.668;37.508;2023-09-18T00:18:29;99875.75;;;11.97;100.00
36600;BME280;35385;55.668;37.508;2023-09-18T00:19:30;99861.69;;;11.95;100.00
36600;BME280;35385;55.668;37.508;2023-09-18T00:20:32;99870.16;;;12.00;100.00
36600;BME280;35385;55.668;37.508;2023-09-18T00:21:33;99835.38;;;11.80;100.00
36600;BME280;35385;55.668;37.508;2023-09-18T00:22:34;99867.34;;;12.02;100.00
36600;BME280;35385;55.668;37.508;2023-09-18T00:23:35;99874.16;;;12.06;100.00
36600;BME280;35385;55.668;37.508;2023-09-18T00:24:35;99868.06;;;12.04;100.00
36600;BME280;35385;55.668;37.508;2023-09-18T00:25:36;99875.25;;;12.03;100.00
36600;BME280;35385;55.668;37.508;2023-09-18T00:26:42;99852.94;;;11.93;100.00
36600;BME280;35385;55.668;37.508;2023-09-18T00:27:43;99854.34;;;11.97;100.00
36600;BME280;35385;55.668;37.508;2023-09-18T00:28:43;99866.00;;;12.08;100.00
36600;BME280;35385;55.668;37.508;2023-09-18T00:29:44;99872.56;;;12.03;100.00
36600;BME280;35385;55.668;37.508;2023-09-18T00:30:49;99859.44;;;12.00;100.00
36600;BME280;35385;55.668;37.508;2023-09-18T00:31:52;99860.84;;;11.95;100.00
36600;BME280;35385;55.668;37.508;2023-09-18T00:32:52;99853.78;;;11.94;100.00
36600;BME280;35385;55.668;37.508;2023-09-18T00:33:53;99860.03;;;12.04;100.00
36600;BME280;35385;55.668;37.508;2023-09-18T00:34:53;99863.94;;;12.00;100.00
36600;BME280;35385;55.668;37.508;2023-09-18T00:35:54;99826.94;;;11.84;100.00
36600;BME280;35385;55.668;37.508;2023-09-18T00:36:55;99857.63;;;12.01;100.00
36600;BME280;35385;55.668;37.508;2023-09-18T00:37:55;99825.91;;;11.76;100.00
36600;BME280;35385;55.668;37.508;2023-09-18T00:38:56;99859.44;;;12.00;100.00
36600;BME280;35385;55.668;37.508;2023-09-18T00:39:57;99857.19;;;11.96;100.00
36600;BME280;35385;55.668;37.508;2023-09-18T00:40:57;99825.91;;;11.76;100.00
36600;BME280;35385;55.668;37.508;2023-09-18T00:41:58;99820.75;;;11.73;100.00
36600;BME280;35385;55.668;37.508;2023-09-18T00:42:58;99876.09;;;12.04;100.00
36600;BME280;35385;55.668;37.508;2023-09-18T00:43:59;99859.31;;;12.02;100.00
36600;BME280;35385;55.668;37.508;2023-09-18T00:44:59;99873.56;;;12.02;100.00
36600;BME280;35385;55.668;37.508;2023-09-18T00:46:00;99878.06;;;12.02;100.00
36600;BME280;35385;55.668;37.508;2023-09-18T00:47:01;99843.59;;;11.88;100.00
36600;BME280;35385;55.668;37.508;2023-09-18T00:48:02;99874.28;;;12.04;100.00
36600;BME280;35385;55.668;37.508;2023-09-18T00:49:02;99852.94;;;11.93;100.00
36600;BME280;35385;55.668;37.508;2023-09-18T00:50:06;99863.19;;;12.09;100.00
36600;BME280;35385;55.668;37.508;2023-09-18T00:51:09;99868.00;;;12.15;100.00
36600;BME280;35385;55.668;37.508;2023-09-18T00:52:10;99865.75;;;12.11;100.00
36600;BME280;35385;55.668;37.508;2023-09-18T00:53:15;99877.13;;;12.13;100.00
36600;BME280;35385;55.668;37.508;2023-09-18T00:54:18;99830.94;;;11.90;100.00
36600;BME280;35385;55.668;37.508;2023-09-18T00:55:19;99806.06;;;11.78;100.00
36600;BME280;35385;55.668;37.508;2023-09-18T00:56:20;99868.25;;;12.12;100.00
36600;BME280;35385;55.668;37.508;2023-09-18T00:57:20;99859.53;;;12.10;100.00
36600;BME280;35385;55.668;37.508;2023-09-18T00:58:22;99848.22;;;12.07;100.00
36600;BME280;35385;55.668;37.508;2023-09-18T00:59:23;99811.72;;;11.85;100.00
36600;BME280;35385;55.668;37.508;2023-09-18T01:00:23;99823.63;;;11.92;100.00
36600;BME280;35385;55.668;37.508;2023-09-18T01:01:24;99867.22;;;12.24;100.00
36600;BME280;35385;55.668;37.508;2023-09-18T01:02:25;99867.47;;;12.21;100.00
36600;BME280;35385;55.668;37.508;2023-09-18T01:03:26;99799.78;;;11.89;100.00
36600;BME280;35385;55.668;37.508;2023-09-18T01:04:28;99865.66;;;12.22;100.00
36600;BME280;35385;55.668;37.508;2023-09-18T01:05:32;99859.63;;;12.29;100.00
36600;BME280;35385;55.668;37.508;2023-09-18T01:06:33;99852.25;;;12.22;100.00
36600;BME280;35385;55.668;37.508;2023-09-18T01:07:34;99847.03;;;12.20;100.00
36600;BME280;35385;55.668;37.508;2023-09-18T01:08:35;99840.25;;;12.16;100.00
36600;BME280;35385;55.668;37.508;2023-09-18T01:09:37;99809.84;;;11.96;100.00
36600;BME280;35385;55.668;37.508;2023-09-18T01:10:48;99859.88;;;12.26;100.00
36600;BME280;35385;55.668;37.508;2023-09-18T01:13:30;99858.66;;;12.30;100.00
36600;BME280;35385;55.668;37.508;2023-09-18T01:15:14;99835.47;;;12.20;100.00
36600;BME280;35385;55.668;37.508;2023-09-18T01:16:24;99839.91;;;12.30;100.00
36600;BME280;35385;55.668;37.508;2023-09-18T01:17:26;99843.00;;;12.26;100.00
36600;BME280;35385;55.668;37.508;2023-09-18T01:18:27;99822.03;;;12.10;100.00
36600;BME280;35385;55.668;37.508;2023-09-18T01:19:54;99849.72;;;12.20;100.00
36600;BME280;35385;55.668;37.508;2023-09-18T01:20:54;99844.88;;;12.14;100.00
36600;BME280;35385;55.668;37.508;2023-09-18T01:21:55;99805.38;;;11.86;100.00
36600;BME280;35385;55.668;37.508;2023-09-18T01:22:55;99849.50;;;12.12;100.00
36600;BME280;35385;55.668;37.508;2023-09-18T01:23:56;99832.16;;;12.07;100.00
36600;BME280;35385;55.668;37.508;2023-09-18T01:24:57;99849.50;;;12.12;100.00
36600;BME280;35385;55.668;37.508;2023-09-18T01:25:58;99846.16;;;12.10;100.00
36600;BME280;35385;55.668;37.508;2023-09-18T01:26:58;99834.25;;;12.03;100.00
36600;BME280;35385;55.668;37.508;2023-09-18T01:27:59;99846.00;;;12.12;100.00
36600;BME280;35385;55.668;37.508;2023-09-18T01:28:59;99843.19;;;12.13;100.00
36600;BME280;35385;55.668;37.508;2023-09-18T01:30:00;99839.38;;;12.16;100.00
36600;BME280;35385;55.668;37.508;2023-09-18T01:31:01;99840.13;;;12.18;100.00
36600;BME280;35385;55.668;37.508;2023-09-18T01:32:03;99836.84;;;12.14;100.00
36600;BME280;35385;55.668;37.508;2023-09-18T01:33:04;99827.91;;;12.04;100.00
36600;BME280;35385;55.668;37.508;2023-09-18T01:34:05;99781.03;;;11.68;100.00
36600;BME280;35385;55.668;37.508;2023-09-18T01:35:06;99836.94;;;12.03;100.00
36600;BME280;35385;55.668;37.508;2023-09-18T01:36:08;99850.31;;;12.03;100.00
36600;BME280;35385;55.668;37.508;2023-09-18T01:37:10;99840.56;;;12.02;100.00
36600;BME280;35385;55.668;37.508;2023-09-18T01:38:11;99834.50;;;12.00;100.00
36600;BME280;35385;55.668;37.508;2023-09-18T01:39:13;99846.53;;;12.06;100.00
36600;BME280;35385;55.668;37.508;2023-09-18T01:40:15;99845.22;;;12.00;100.00
36600;BME280;35385;55.668;37.508;2023-09-18T01:41:16;99848.47;;;12.03;100.00
36600;BME280;35385;55.668;37.508;2023-09-18T01:42:17;99830.41;;;11.96;100.00
36600;BME280;35385;55.668;37.508;2023-09-18T01:43:18;99816.31;;;11.94;100.00
36600;BME280;35385;55.668;37.508;2023-09-18T01:44:18;99838.88;;;12.01;100.00
36600;BME280;35385;55.668;37.508;2023-09-18T01:45:19;99844.50;;;11.98;100.00
36600;BME280;35385;55.668;37.508;2023-09-18T01:46:20;99795.28;;;11.68;100.00
36600;BME280;35385;55.668;37.508;2023-09-18T01:47:22;99845.03;;;11.92;100.00
36600;BME280;35385;55.668;37.508;2023-09-18T01:48:27;99837.25;;;11.89;100.00
36600;BME280;35385;55.668;37.508;2023-09-18T01:49:33;99833.84;;;11.87;100.00
36600;BME280;35385;55.668;37.508;2023-09-18T01:50:36;99827.09;;;11.83;100.00
36600;BME280;35385;55.668;37.508;2023-09-18T01:51:37;99828.50;;;11.87;100.00
36600;BME280;35385;55.668;37.508;2023-09-18T01:52:37;99832.03;;;11.87;100.00
36600;BME280;35385;55.668;37.508;2023-09-18T01:53:38;99830.47;;;11.85;100.00
36600;BME280;35385;55.668;37.508;2023-09-18T01:54:39;99831.44;;;11.84;100.00
36600;BME280;35385;55.668;37.508;2023-09-18T01:55:40;99831.59;;;11.82;100.00
36600;BME280;35385;55.668;37.508;2023-09-18T01:56:40;99833.41;;;11.82;100.00
36600;BME280;35385;55.668;37.508;2023-09-18T01:57:41;99835.38;;;11.80;100.00
36600;BME280;35385;55.668;37.508;2023-09-18T01:58:42;99834.78;;;11.76;100.00
36600;BME280;35385;55.668;37.508;2023-09-18T01:59:43;99774.34;;;11.42;100.00
36600;BME280;35385;55.668;37.508;2023-09-18T02:00:45;99820.03;;;11.70;100.00
36600;BME280;35385;55.668;37.508;2023-09-18T02:01:45;99781.28;;;11.44;100.00
36600;BME280;35385;55.668;37.508;2023-09-18T02:02:46;99828.31;;;11.79;100.00
36600;BME280;35385;55.668;37.508;2023-09-18T02:03:47;99815.66;;;11.69;100.00
36600;BME280;35385;55.668;37.508;2023-09-18T02:04:47;99813.53;;;11.63;100.00
36600;BME280;35385;55.668;37.508;2023-09-18T02:05:48;99822.34;;;11.75;100.00
36600;BME280;35385;55.668;37.508;2023-09-18T02:06:51;99789.66;;;11.51;100.00
36600;BME280;35385;55.668;37.508;2023-09-18T02:07:52;99820.53;;;11.76;100.00
36600;BME280;35385;55.668;37.508;2023-09-18T02:08:52;99822.25;;;11.77;100.00
36600;BME280;35385;55.668;37.508;2023-09-18T02:09:55;99778.69;;;11.54;100.00
36600;BME280;35385;55.668;37.508;2023-09-18T02:10:56;99818.06;;;11.84;100.00
36600;BME280;35385;55.668;37.508;2023-09-18T02:11:56;99814.22;;;11.77;100.00
36600;BME280;35385;55.668;37.508;2023-09-18T02:12:57;99810.78;;;11.75;100.00
36600;BME280;35385;55.668;37.508;2023-09-18T02:13:57;99804.59;;;11.74;100.00
36600;BME280;35385;55.668;37.508;2023-09-18T02:14:58;99815.38;;;11.84;100.00
36600;BME280;35385;55.668;37.508;2023-09-18T02:16:04;99812.69;;;11.84;100.00
36600;BME280;35385;55.668;37.508;2023-09-18T02:17:05;99812.00;;;11.82;100.00
36600;BME280;35385;55.668;37.508;2023-09-18T02:18:05;99811.16;;;11.81;100.00
36600;BME280;35385;55.668;37.508;2023-09-18T02:19:07;99814.69;;;11.82;100.00
36600;BME280;35385;55.668;37.508;2023-09-18T02:20:09;99715.28;;;11.24;100.00
36600;BME280;35385;55.668;37.508;2023-09-18T02:21:21;99811.47;;;11.88;100.00
36600;BME280;35385;55.668;37.508;2023-09-18T02:22:22;99809.47;;;11.80;100.00
36600;BME280;35385;55.668;37.508;2023-09-18T02:23:23;99813.28;;;11.87;100.00
36600;BME280;35385;55.668;37.508;2023-09-18T02:24:23;99750.09;;;11.54;100.00
36600;BME280;35385;55.668;37.508;2023-09-18T02:25:24;99808.53;;;11.91;100.00
36600;BME280;35385;55.668;37.508;2023-09-18T02:26:26;99811.84;;;11.83;100.00
36600;BME280;35385;55.668;37.508;2023-09-18T02:27:27;99809.34;;;11.82;100.00
36600;BME280;35385;55.668;37.508;2023-09-18T02:28:27;99813.00;;;11.81;100.00
36600;BME280;35385;55.668;37.508;2023-09-18T02:29:28;99810.03;;;11.84;100.00
36600;BME280;35385;55.668;37.508;2023-09-18T02:30:29;99810.63;;;11.87;100.00
36600;BME280;35385;55.668;37.508;2023-09-18T02:31:29;99813.88;;;11.91;100.00
36600;BME280;35385;55.668;37.508;2023-09-18T02:32:30;99807.81;;;11.89;100.00
36600;BME280;35385;55.668;37.508;2023-09-18T02:33:30;99816.09;;;11.86;100.00
36600;BME280;35385;55.668;37.508;2023-09-18T02:34:31;99803.00;;;11.83;100.00
36600;BME280;35385;55.668;37.508;2023-09-18T02:35:31;99802.00;;;11.84;100.00
36600;BME280;35385;55.668;37.508;2023-09-18T02:36:32;99798.75;;;11.80;100.00
36600;BME280;35385;55.668;37.508;2023-09-18T02:37:33;99803.56;;;11.86;100.00
36600;BME280;35385;55.668;37.508;2023-09-18T02:38:34;99794.72;;;11.75;100.00
36600;BME280;35385;55.668;37.508;2023-09-18T02:39:34;99802.28;;;11.81;100.00
36600;BME280;35385;55.668;37.508;2023-09-18T02:40:35;99813.56;;;11.84;100.00
36600;BME280;35385;55.668;37.508;2023-09-18T02:41:35;99798.16;;;11.77;100.00
36600;BME280;35385;55.668;37.508;2023-09-18T02:42:36;99810.19;;;11.71;100.00
36600;BME280;35385;55.668;37.508;2023-09-18T02:43:37;99802.56;;;11.66;100.00
36600;BME280;35385;55.668;37.508;2023-09-18T02:44:38;99811.44;;;11.67;100.00
36600;BME280;35385;55.668;37.508;2023-09-18T02:45:40;99754.72;;;11.31;100.00
36600;BME280;35385;55.668;37.508;2023-09-18T02:46:41;99804.97;;;11.69;100.00
36600;BME280;35385;55.668;37.508;2023-09-18T02:47:43;99811.56;;;11.65;100.00
36600;BME280;35385;55.668;37.508;2023-09-18T02:48:44;99811.31;;;11.68;100.00
36600;BME280;35385;55.668;37.508;2023-09-18T02:49:44;99803.69;;;11.64;100.00
36600;BME280;35385;55.668;37.508;2023-09-18T02:50:45;99806.47;;;11.62;100.00
36600;BME280;35385;55.668;37.508;2023-09-18T02:51:46;99799.19;;;11.64;100.00
36600;BME280;35385;55.668;37.508;2023-09-18T02:52:46;99798.06;;;11.67;100.00
36600;BME280;35385;55.668;37.508;2023-09-18T02:53:47;99802.28;;;11.69;100.00
36600;BME280;35385;55.668;37.508;2023-09-18T02:54:47;99803.13;;;11.70;100.00
36600;BME280;35385;55.668;37.508;2023-09-18T02:55:53;99797.22;;;11.66;100.00
36600;BME280;35385;55.668;37.508;2023-09-18T02:56:54;99795.53;;;11.65;100.00
36600;BME280;35385;55.668;37.508;2023-09-18T02:57:54;99798.19;;;11.65;100.00
36600;BME280;35385;55.668;37.508;2023-09-18T02:58:55;99793.94;;;11.63;100.00
36600;BME280;35385;55.668;37.508;2023-09-18T02:59:55;99787.03;;;11.60;100.00
36600;BME280;35385;55.668;37.508;2023-09-18T03:00:57;99733.81;;;11.25;100.00
36600;BME280;35385;55.668;37.508;2023-09-18T03:02:03;99799.69;;;11.58;100.00
36600;BME280;35385;55.668;37.508;2023-09-18T03:03:03;99798.31;;;11.64;100.00
36600;BME280;35385;55.668;37.508;2023-09-18T03:04:04;99799.19;;;11.64;100.00
36600;BME280;35385;55.668;37.508;2023-09-18T03:05:05;99791.41;;;11.61;100.00
36600;BME280;35385;55.668;37.508;2023-09-18T03:06:07;99798.19;;;11.65;100.00
36600;BME280;35385;55.668;37.508;2023-09-18T03:07:08;99798.94;;;11.67;100.00
36600;BME280;35385;55.668;37.508;2023-09-18T03:08:09;99760.97;;;11.42;100.00
36600;BME280;35385;55.668;37.508;2023-09-18T03:09:10;99799.63;;;11.69;100.00
36600;BME280;35385;55.668;37.508;2023-09-18T03:10:10;99800.47;;;11.70;100.00
36600;BME280;35385;55.668;37.508;2023-09-18T03:11:14;99744.81;;;11.43;100.00
36600;BME280;35385;55.668;37.508;2023-09-18T03:12:15;99796.09;;;11.69;100.00
36600;BME280;35385;55.668;37.508;2023-09-18T03:13:15;99794.19;;;11.60;100.00
36600;BME280;35385;55.668;37.508;2023-09-18T03:14:16;99790.44;;;11.62;100.00
36600;BME280;35385;55.668;37.508;2023-09-18T03:15:16;99797.47;;;11.63;100.00
36600;BME280;35385;55.668;37.508;2023-09-18T03:16:17;99769.66;;;11.55;100.00
36600;BME280;35385;55.668;37.508;2023-09-18T03:17:18;99793.56;;;11.67;100.00
36600;BME280;35385;55.668;37.508;2023-09-18T03:18:18;99805.13;;;11.68;100.00
36600;BME280;35385;55.668;37.508;2023-09-18T03:19:19;99805.25;;;11.66;100.00
36600;BME280;35385;55.668;37.508;2023-09-18T03:20:25;99798.94;;;11.67;100.00
36600;BME280;35385;55.668;37.508;2023-09-18T03:21:26;99780.22;;;11.56;100.00
36600;BME280;35385;55.668;37.508;2023-09-18T03:22:27;99798.38;;;11.74;100.00
36600;BME280;35385;55.668;37.508;2023-09-18T03:23:27;99776.91;;;11.64;100.00
36600;BME280;35385;55.668;37.508;2023-09-18T03:24:28;99787.38;;;11.67;100.00
36600;BME280;35385;55.668;37.508;2023-09-18T03:25:29;99802.03;;;11.73;100.00
36600;BME280;35385;55.668;37.508;2023-09-18T03:26:30;99809.22;;;11.72;100.00
36600;BME280;35385;55.668;37.508;2023-09-18T03:27:30;99805.56;;;11.73;100.00
36600;BME280;35385;55.668;37.508;2023-09-18T03:28:31;99750.41;;;11.40;100.00
36600;BME280;35385;55.668;37.508;2023-09-18T03:29:32;99775.16;;;11.53;100.00
36600;BME280;35385;55.668;37.508;2023-09-18T03:30:33;99808.25;;;11.73;100.00
36600;BME280;35385;55.668;37.508;2023-09-18T03:31:33;99795.72;;;11.74;100.00
36600;BME280;35385;55.668;37.508;2023-09-18T03:32:34;99796.56;;;11.74;100.00
36600;BME280;35385;55.668;37.508;2023-09-18T03:33:36;99808.63;;;11.80;100.00
36600;BME280;35385;55.668;37.508;2023-09-18T03:34:36;99752.81;;;11.43;100.00
36600;BME280;35385;55.668;37.508;2023-09-18T03:35:50;99814.09;;;11.78;100.00
36600;BME280;35385;55.668;37.508;2023-09-18T03:36:51;99788.34;;;11.66;100.00
36600;BME280;35385;55.668;37.508;2023-09-18T03:37:52;99793.81;;;11.64;100.00
36600;BME280;35385;55.668;37.508;2023-09-18T03:38:56;99802.28;;;11.69;100.00
36600;BME280;35385;55.668;37.508;2023-09-18T03:39:56;99797.97;;;11.57;100.00
36600;BME280;35385;55.668;37.508;2023-09-18T03:40:59;99809.16;;;11.62;100.00
36600;BME280;35385;55.668;37.508;2023-09-18T03:42:01;99808.38;;;11.72;100.00
36600;BME280;35385;55.668;37.508;2023-09-18T03:43:02;99809.84;;;11.76;100.00
36600;BME280;35385;55.668;37.508;2023-09-18T03:44:02;99793.78;;;11.76;100.00
36600;BME280;35385;55.668;37.508;2023-09-18T03:45:05;99803.38;;;11.78;100.00
36600;BME280;35385;55.668;37.508;2023-09-18T03:46:07;99764.47;;;11.53;100.00
36600;BME280;35385;55.668;37.508;2023-09-18T03:47:07;99804.09;;;11.80;100.00
36600;BME280;35385;55.668;37.508;2023-09-18T03:48:08;99741.88;;;11.46;100.00
36600;BME280;35385;55.668;37.508;2023-09-18T03:49:09;99767.59;;;11.58;100.00
36600;BME280;35385;55.668;37.508;2023-09-18T03:50:10;99806.91;;;11.79;100.00
36600;BME280;35385;55.668;37.508;2023-09-18T03:51:11;99772.94;;;11.58;100.00
36600;BME280;35385;55.668;37.508;2023-09-18T03:52:16;99803.13;;;11.81;100.00
36600;BME280;35385;55.668;37.508;2023-09-18T03:53:16;99804.97;;;11.81;100.00
36600;BME280;35385;55.668;37.508;2023-09-18T03:54:17;99799.47;;;11.82;100.00
36600;BME280;35385;55.668;37.508;2023-09-18T03:55:18;99754.47;;;11.55;100.00
36600;BME280;35385;55.668;37.508;2023-09-18T03:56:20;99800.50;;;11.91;100.00
36600;BME280;35385;55.668;37.508;2023-09-18T03:57:20;99763.66;;;11.62;100.00
36600;BME280;35385;55.668;37.508;2023-09-18T03:58:21;99802.72;;;11.86;100.00
36600;BME280;35385;55.668;37.508;2023-09-18T03:59:21;99805.84;;;11.91;100.00
36600;BME280;35385;55.668;37.508;2023-09-18T04:00:22;99810.81;;;11.95;100.00
36600;BME280;35385;55.668;37.508;2023-09-18T04:01:23;99800.97;;;11.96;100.00
36600;BME280;35385;55.668;37.508;2023-09-18T04:02:25;99805.78;;;12.02;100.00
36600;BME280;35385;55.668;37.508;2023-09-18T04:03:25;99806.38;;;12.06;100.00
36600;BME280;35385;55.668;37.508;2023-09-18T04:04:26;99805.78;;;12.02;100.00
36600;BME280;35385;55.668;37.508;2023-09-18T04:05:28;99798.97;;;11.98;100.00
36600;BME280;35385;55.668;37.508;2023-09-18T04:06:36;99816.09;;;12.07;100.00
36600;BME280;35385;55.668;37.508;2023-09-18T04:07:38;99749.25;;;11.75;100.00
36600;BME280;35385;55.668;37.508;2023-09-18T04:08:38;99799.19;;;12.06;100.00
36600;BME280;35385;55.668;37.508;2023-09-18T04:09:39;99799.44;;;12.03;100.00
36600;BME280;35385;55.668;37.508;2023-09-18T04:10:40;99797.47;;;12.05;100.00
36600;BME280;35385;55.668;37.508;2023-09-18T04:11:40;99745.63;;;11.76;100.00
36600;BME280;35385;55.668;37.508;2023-09-18T04:12:41;99796.97;;;12.11;100.00
36600;BME280;35385;55.668;37.508;2023-09-18T04:13:41;99805.69;;;12.13;100.00
36600;BME280;35385;55.668;37.508;2023-09-18T04:14:42;99773.34;;;11.95;100.00
36600;BME280;35385;55.668;37.508;2023-09-18T04:15:43;99796.97;;;12.11;100.00
36600;BME280;35385;55.668;37.508;2023-09-18T04:16:46;99794.13;;;12.13;100.00
36600;BME280;35385;55.668;37.508;2023-09-18T04:17:47;99797.53;;;12.15;100.00
36600;BME280;35385;55.668;37.508;2023-09-18T04:18:47;99790.22;;;12.17;100.00
36600;BME280;35385;55.668;37.508;2023-09-18T04:19:48;99772.94;;;12.00;100.00
36600;BME280;35385;55.668;37.508;2023-09-18T04:20:49;99784.25;;;12.13;100.00
36600;BME280;35385;55.668;37.508;2023-09-18T04:21:52;99780.19;;;12.09;100.00
36600;BME280;35385;55.668;37.508;2023-09-18T04:23:18;99792.88;;;12.17;100.00
36600;BME280;35385;55.668;37.508;2023-09-18T04:24:20;99790.34;;;12.15;100.00
36600;BME280;35385;55.668;37.508;2023-09-18T04:25:20;99790.53;;;12.23;100.00
36600;BME280;35385;55.668;37.508;2023-09-18T04:26:23;99789.69;;;12.23;100.00
36600;BME280;35385;55.668;37.508;2023-09-18T04:27:24;99792.25;;;12.24;100.00
36600;BME280;35385;55.668;37.508;2023-09-18T04:28:24;99785.91;;;12.25;100.00
36600;BME280;35385;55.668;37.508;2023-09-18T04:29:25;99736.84;;;11.94;100.00
36600;BME280;35385;55.668;37.508;2023-09-18T04:30:26;99792.25;;;12.24;100.00
36600;BME280;35385;55.668;37.508;2023-09-18T04:31:27;99784.88;;;12.26;100.00
36600;BME280;35385;55.668;37.508;2023-09-18T04:32:28;99799.72;;;12.30;100.00
36600;BME280;35385;55.668;37.508;2023-09-18T04:33:29;99778.00;;;12.24;100.00
36600;BME280;35385;55.668;37.508;2023-09-18T04:34:30;99790.00;;;12.29;100.00
36600;BME280;35385;55.668;37.508;2023-09-18T04:35:30;99740.81;;;12.00;100.00
36600;BME280;35385;55.668;37.508;2023-09-18T04:36:32;99740.28;;;12.06;100.00
36600;BME280;35385;55.668;37.508;2023-09-18T04:37:36;99794.81;;;12.35;100.00
36600;BME280;35385;55.668;37.508;2023-09-18T04:38:37;99793.84;;;12.36;100.00
36600;BME280;35385;55.668;37.508;2023-09-18T04:39:38;99735.66;;;12.08;100.00
36600;BME280;35385;55.668;37.508;2023-09-18T04:40:38;99787.25;;;12.41;100.00
36600;BME280;35385;55.668;37.508;2023-09-18T04:41:39;99802.28;;;12.42;100.00
36600;BME280;35385;55.668;37.508;2023-09-18T04:42:40;99784.72;;;12.49;100.00
36600;BME280;35385;55.668;37.508;2023-09-18T04:43:41;99769.63;;;12.48;100.00
36600;BME280;35385;55.668;37.508;2023-09-18T04:44:44;99769.16;;;12.43;100.00
36600;BME280;35385;55.668;37.508;2023-09-18T04:45:45;99785.16;;;12.54;100.00
36600;BME280;35385;55.668;37.508;2023-09-18T04:46:45;99777.41;;;12.51;100.00
36600;BME280;35385;55.668;37.508;2023-09-18T04:47:46;99777.53;;;12.59;100.00
36600;BME280;35385;55.668;37.508;2023-09-18T04:48:47;99778.13;;;12.62;100.00
36600;BME280;35385;55.668;37.508;2023-09-18T04:49:48;99780.28;;;12.68;100.00
36600;BME280;35385;55.668;37.508;2023-09-18T04:50:49;99784.78;;;12.68;100.00
36600;BME280;35385;55.668;37.508;2023-09-18T04:51:50;99736.75;;;12.36;100.00
36600;BME280;35385;55.668;37.508;2023-09-18T04:52:50;99782.78;;;12.60;100.00
36600;BME280;35385;55.668;37.508;2023-09-18T04:53:52;99777.72;;;12.67;100.00
36600;BME280;35385;55.668;37.508;2023-09-18T04:54:52;99764.88;;;12.61;100.00
36600;BME280;35385;55.668;37.508;2023-09-18T04:55:54;99785.06;;;12.74;100.00
36600;BME280;35385;55.668;37.508;2023-09-18T04:56:55;99783.22;;;12.75;100.00
36600;BME280;35385;55.668;37.508;2023-09-18T04:57:56;99764.19;;;12.68;100.00
36600;BME280;35385;55.668;37.508;2023-09-18T04:58:58;99731.41;;;12.55;100.00
36600;BME280;35385;55.668;37.508;2023-09-18T05:00:00;99782.84;;;12.89;100.00
36600;BME280;35385;55.668;37.508;2023-09-18T05:01:00;99776.63;;;12.89;100.00
36600;BME280;35385;55.668;37.508;2023-09-18T05:02:01;99772.25;;;12.88;100.00
36600;BME280;35385;55.668;37.508;2023-09-18T05:03:03;99779.03;;;12.92;100.00
36600;BME280;35385;55.668;37.508;2023-09-18T05:04:04;99774.66;;;12.81;100.00
36600;BME280;35385;55.668;37.508;2023-09-18T05:05:05;99760.41;;;12.81;100.00
36600;BME280;35385;55.668;37.508;2023-09-18T05:06:06;99788.91;;;13.01;100.00
36600;BME280;35385;55.668;37.508;2023-09-18T05:07:07;99777.47;;;12.99;100.00
36600;BME280;35385;55.668;37.508;2023-09-18T05:08:07;99779.47;;;13.06;100.00
36600;BME280;35385;55.668;37.508;2023-09-18T05:09:08;99783.28;;;13.14;100.00
36600;BME280;35385;55.668;37.508;2023-09-18T05:10:09;99742.50;;;13.00;100.00
36600;BME280;35385;55.668;37.508;2023-09-18T05:11:10;99773.56;;;13.13;100.00
36600;BME280;35385;55.668;37.508;2023-09-18T05:12:12;99777.69;;;13.17;100.00
36600;BME280;35385;55.668;37.508;2023-09-18T05:13:14;99788.97;;;13.30;100.00
36600;BME280;35385;55.668;37.508;2023-09-18T05:14:14;99766.25;;;13.34;100.00
36600;BME280;35385;55.668;37.508;2023-09-18T05:15:16;99776.56;;;13.38;100.00
36600;BME280;35385;55.668;37.508;2023-09-18T05:16:17;99779.78;;;13.42;100.00
36600;BME280;35385;55.668;37.508;2023-09-18T05:17:18;99771.34;;;13.37;100.00
36600;BME280;35385;55.668;37.508;2023-09-18T05:18:18;99778.13;;;13.41;100.00
36600;BME280;35385;55.668;37.508;2023-09-18T05:19:19;99791.38;;;13.33;100.00